sensor_id;sensor_type;location;lat;lon;timestamp;P1;durP1;ratioP1;P2;durP2;ratioP2
83284;SDS011;73191;50.074;8.488;2024-01-15T00:02:06;23.55;;;8.18;;
83284;SDS011;73191;50.074;8.488;2024-01-15T00:04:37;23.90;;;8.75;;
83284;SDS011;73191;50.074;8.488;2024-01-15T00:07:05;21.52;;;8.43;;
83284;SDS011;73191;50.074;8.488;2024-01-15T00:09:34;18.75;;;8.15;;
83284;SDS011;73191;50.074;8.488;2024-01-15T00:12:02;23.77;;;8.43;;
83284;SDS011;73191;50.074;8.488;2024-01-15T00:14:30;22.17;;;8.23;;
83284;SDS011;73191;50.074;8.488;2024-01-15T00:16:57;23.17;;;8.23;;
83284;SDS011;73191;50.074;8.488;2024-01-15T00:19:26;21.55;;;8.60;;
83284;SDS011;73191;50.074;8.488;2024-01-15T00:21:56;22.85;;;8.77;;
83284;SDS011;73191;50.074;8.488;2024-01-15T00:24:23;23.15;;;7.85;;
83284;SDS011;73191;50.074;8.488;2024-01-15T00:26:51;17.67;;;7.38;;
83284;SDS011;73191;50.074;8.488;2024-01-15T00:29:19;23.13;;;8.15;;
83284;SDS011;73191;50.074;8.488;2024-01-15T00:31:47;22.38;;;7.47;;
83284;SDS011;73191;50.074;8.488;2024-01-15T00:34:15;19.75;;;7.82;;
83284;SDS011;73191;50.074;8.488;2024-01-15T00:36:43;21.88;;;7.30;;
83284;SDS011;73191;50.074;8.488;2024-01-15T00:39:12;17.92;;;7.82;;
83284;SDS011;73191;50.074;8.488;2024-01-15T00:41:40;23.98;;;7.63;;
83284;SDS011;73191;50.074;8.488;2024-01-15T00:44:07;20.65;;;7.97;;
83284;SDS011;73191;50.074;8.488;2024-01-15T00:46:41;20.40;;;8.63;;
83284;SDS011;73191;50.074;8.488;2024-01-15T00:49:09;25.98;;;8.00;;
83284;SDS011;73191;50.074;8.488;2024-01-15T00:51:38;28.10;;;8.38;;
83284;SDS011;73191;50.074;8.488;2024-01-15T00:54:06;27.33;;;8.27;;
83284;SDS011;73191;50.074;8.488;2024-01-15T00:56:35;19.90;;;7.82;;
83284;SDS011;73191;50.074;8.488;2024-01-15T00:59:03;20.25;;;7.65;;
83284;SDS011;73191;50.074;8.488;2024-01-15T01:01:31;23.92;;;7.75;;
83284;SDS011;73191;50.074;8.488;2024-01-15T01:03:59;20.92;;;9.75;;
83284;SDS011;73191;50.074;8.488;2024-01-15T01:06:27;21.92;;;8.15;;
83284;SDS011;73191;50.074;8.488;2024-01-15T01:08:57;30.13;;;8.85;;
83284;SDS011;73191;50.074;8.488;2024-01-15T01:11:25;22.55;;;8.40;;
83284;SDS011;73191;50.074;8.488;2024-01-15T01:13:54;21.00;;;7.47;;
83284;SDS011;73191;50.074;8.488;2024-01-15T01:16:22;26.90;;;9.32;;
83284;SDS011;73191;50.074;8.488;2024-01-15T01:18:50;22.20;;;7.72;;
83284;SDS011;73191;50.074;8.488;2024-01-15T01:21:18;27.30;;;9.45;;
83284;SDS011;73191;50.074;8.488;2024-01-15T01:23:46;23.45;;;8.48;;
83284;SDS011;73191;50.074;8.488;2024-01-15T01:26:15;24.23;;;8.63;;
83284;SDS011;73191;50.074;8.488;2024-01-15T01:28:43;23.88;;;8.55;;
83284;SDS011;73191;50.074;8.488;2024-01-15T01:31:11;24.70;;;8.55;;
83284;SDS011;73191;50.074;8.488;2024-01-15T01:33:39;25.02;;;8.25;;
83284;SDS011;73191;50.074;8.488;2024-01-15T01:36:07;19.67;;;7.40;;
83284;SDS011;73191;50.074;8.488;2024-01-15T01:38:36;26.85;;;8.25;;
83284;SDS011;73191;50.074;8.488;2024-01-15T01:41:04;20.38;;;8.57;;
83284;SDS011;73191;50.074;8.488;2024-01-15T01:43:32;20.15;;;8.68;;
83284;SDS011;73191;50.074;8.488;2024-01-15T01:46:00;25.65;;;8.35;;
83284;SDS011;73191;50.074;8.488;2024-01-15T01:48:30;24.05;;;7.80;;
83284;SDS011;73191;50.074;8.488;2024-01-15T01:51:00;23.25;;;7.72;;
83284;SDS011;73191;50.074;8.488;2024-01-15T01:53:28;19.30;;;7.55;;
83284;SDS011;73191;50.074;8.488;2024-01-15T01:55:57;20.73;;;7.82;;
83284;SDS011;73191;50.074;8.488;2024-01-15T01:58:24;20.25;;;7.72;;
83284;SDS011;73191;50.074;8.488;2024-01-15T02:00:53;20.10;;;7.40;;
83284;SDS011;73191;50.074;8.488;2024-01-15T02:03:21;23.73;;;8.82;;
83284;SDS011;73191;50.074;8.488;2024-01-15T02:05:50;24.17;;;7.65;;
83284;SDS011;73191;50.074;8.488;2024-01-15T02:08:19;19.35;;;7.25;;
83284;SDS011;73191;50.074;8.488;2024-01-15T02:10:46;21.73;;;7.43;;
83284;SDS011;73191;50.074;8.488;2024-01-15T02:13:14;21.77;;;7.65;;
83284;SDS011;73191;50.074;8.488;2024-01-15T02:15:42;18.88;;;7.85;;
83284;SDS011;73191;50.074;8.488;2024-01-15T02:18:10;23.25;;;8.45;;
83284;SDS011;73191;50.074;8.488;2024-01-15T02:20:37;22.75;;;7.90;;
83284;SDS011;73191;50.074;8.488;2024-01-15T02:23:09;22.67;;;7.90;;
83284;SDS011;73191;50.074;8.488;2024-01-15T02:25:38;19.58;;;7.25;;
83284;SDS011;73191;50.074;8.488;2024-01-15T02:28:06;25.25;;;8.82;;
83284;SDS011;73191;50.074;8.488;2024-01-15T02:30:34;23.10;;;7.75;;
83284;SDS011;73191;50.074;8.488;2024-01-15T02:33:05;20.65;;;7.28;;
83284;SDS011;73191;50.074;8.488;2024-01-15T02:35:33;19.70;;;7.55;;
83284;SDS011;73191;50.074;8.488;2024-01-15T02:38:02;20.75;;;7.78;;
83284;SDS011;73191;50.074;8.488;2024-01-15T02:40:32;18.65;;;7.50;;
83284;SDS011;73191;50.074;8.488;2024-01-15T02:42:59;26.77;;;8.65;;
83284;SDS011;73191;50.074;8.488;2024-01-15T02:45:27;25.58;;;9.48;;
83284;SDS011;73191;50.074;8.488;2024-01-15T02:47:55;21.90;;;8.73;;
83284;SDS011;73191;50.074;8.488;2024-01-15T02:50:23;19.70;;;7.32;;
83284;SDS011;73191;50.074;8.488;2024-01-15T02:52:51;24.73;;;8.43;;
83284;SDS011;73191;50.074;8.488;2024-01-15T02:55:19;23.40;;;9.10;;
83284;SDS011;73191;50.074;8.488;2024-01-15T02:57:48;23.92;;;8.50;;
83284;SDS011;73191;50.074;8.488;2024-01-15T03:00:16;17.45;;;7.47;;
83284;SDS011;73191;50.074;8.488;2024-01-15T03:02:44;21.05;;;7.55;;
83284;SDS011;73191;50.074;8.488;2024-01-15T03:05:14;24.88;;;7.65;;
83284;SDS011;73191;50.074;8.488;2024-01-15T03:07:42;18.83;;;8.50;;
83284;SDS011;73191;50.074;8.488;2024-01-15T03:10:10;23.42;;;7.82;;
83284;SDS011;73191;50.074;8.488;2024-01-15T03:12:38;21.30;;;7.55;;
83284;SDS011;73191;50.074;8.488;2024-01-15T03:15:07;22.10;;;7.43;;
83284;SDS011;73191;50.074;8.488;2024-01-15T03:17:35;17.25;;;7.35;;
83284;SDS011;73191;50.074;8.488;2024-01-15T03:20:03;21.55;;;8.02;;
83284;SDS011;73191;50.074;8.488;2024-01-15T03:22:31;19.48;;;7.18;;
83284;SDS011;73191;50.074;8.488;2024-01-15T03:24:59;16.42;;;6.38;;
83284;SDS011;73191;50.074;8.488;2024-01-15T03:27:27;19.90;;;7.32;;
83284;SDS011;73191;50.074;8.488;2024-01-15T03:29:54;20.17;;;7.55;;
83284;SDS011;73191;50.074;8.488;2024-01-15T03:32:23;20.52;;;8.90;;
83284;SDS011;73191;50.074;8.488;2024-01-15T03:34:51;21.90;;;7.47;;
83284;SDS011;73191;50.074;8.488;2024-01-15T03:37:19;19.00;;;6.50;;
83284;SDS011;73191;50.074;8.488;2024-01-15T03:39:46;21.05;;;7.93;;
83284;SDS011;73191;50.074;8.488;2024-01-15T03:42:14;18.20;;;7.15;;
83284;SDS011;73191;50.074;8.488;2024-01-15T03:44:42;18.63;;;7.63;;
83284;SDS011;73191;50.074;8.488;2024-01-15T03:47:10;20.00;;;6.75;;
83284;SDS011;73191;50.074;8.488;2024-01-15T03:49:39;21.80;;;7.82;;
83284;SDS011;73191;50.074;8.488;2024-01-15T03:52:07;20.77;;;6.65;;
83284;SDS011;73191;50.074;8.488;2024-01-15T03:54:34;19.08;;;6.38;;
83284;SDS011;73191;50.074;8.488;2024-01-15T03:57:02;17.55;;;6.15;;
83284;SDS011;73191;50.074;8.488;2024-01-15T03:59:30;17.45;;;7.45;;
83284;SDS011;73191;50.074;8.488;2024-01-15T04:01:57;19.02;;;6.53;;
83284;SDS011;73191;50.074;8.488;2024-01-15T04:04:25;18.02;;;7.93;;
83284;SDS011;73191;50.074;8.488;2024-01-15T04:06:54;21.05;;;7.35;;
83284;SDS011;73191;50.074;8.488;2024-01-15T04:09:22;24.50;;;7.13;;
83284;SDS011;73191;50.074;8.488;2024-01-15T04:11:50;15.38;;;5.78;;
83284;SDS011;73191;50.074;8.488;2024-01-15T04:14:17;20.15;;;7.47;;
83284;SDS011;73191;50.074;8.488;2024-01-15T04:16:45;18.65;;;6.70;;
83284;SDS011;73191;50.074;8.488;2024-01-15T04:19:12;16.23;;;6.43;;
83284;SDS011;73191;50.074;8.488;2024-01-15T04:21:40;18.30;;;7.32;;
83284;SDS011;73191;50.074;8.488;2024-01-15T04:24:09;18.40;;;6.95;;
83284;SDS011;73191;50.074;8.488;2024-01-15T04:26:37;16.77;;;7.05;;
83284;SDS011;73191;50.074;8.488;2024-01-15T04:29:05;21.50;;;6.85;;
83284;SDS011;73191;50.074;8.488;2024-01-15T04:31:32;16.17;;;6.63;;
83284;SDS011;73191;50.074;8.488;2024-01-15T04:34:00;23.80;;;7.00;;
83284;SDS011;73191;50.074;8.488;2024-01-15T04:36:28;15.20;;;5.97;;
83284;SDS011;73191;50.074;8.488;2024-01-15T04:38:56;19.80;;;6.57;;
83284;SDS011;73191;50.074;8.488;2024-01-15T04:41:25;15.35;;;6.32;;
83284;SDS011;73191;50.074;8.488;2024-01-15T04:43:52;18.17;;;7.18;;
83284;SDS011;73191;50.074;8.488;2024-01-15T04:46:20;20.77;;;6.78;;
83284;SDS011;73191;50.074;8.488;2024-01-15T04:48:47;18.20;;;7.05;;
83284;SDS011;73191;50.074;8.488;2024-01-15T04:51:15;17.63;;;5.97;;
83284;SDS011;73191;50.074;8.488;2024-01-15T04:53:43;19.88;;;7.63;;
83284;SDS011;73191;50.074;8.488;2024-01-15T04:56:11;20.70;;;6.68;;
83284;SDS011;73191;50.074;8.488;2024-01-15T04:58:40;17.13;;;6.05;;
83284;SDS011;73191;50.074;8.488;2024-01-15T05:01:08;16.17;;;6.63;;
83284;SDS011;73191;50.074;8.488;2024-01-15T05:03:36;21.80;;;7.18;;
83284;SDS011;73191;50.074;8.488;2024-01-15T05:06:04;18.05;;;5.45;;
83284;SDS011;73191;50.074;8.488;2024-01-15T05:08:32;22.50;;;7.20;;
83284;SDS011;73191;50.074;8.488;2024-01-15T05:11:00;18.45;;;6.88;;
83284;SDS011;73191;50.074;8.488;2024-01-15T05:13:29;18.20;;;7.55;;
83284;SDS011;73191;50.074;8.488;2024-01-15T05:15:58;16.42;;;6.43;;
83284;SDS011;73191;50.074;8.488;2024-01-15T05:18:26;18.83;;;7.00;;
83284;SDS011;73191;50.074;8.488;2024-01-15T05:20:53;19.80;;;6.82;;
83284;SDS011;73191;50.074;8.488;2024-01-15T05:23:21;17.15;;;5.43;;
83284;SDS011;73191;50.074;8.488;2024-01-15T05:25:49;15.70;;;6.05;;
83284;SDS011;73191;50.074;8.488;2024-01-15T05:28:16;17.95;;;6.85;;
83284;SDS011;73191;50.074;8.488;2024-01-15T05:30:44;20.70;;;7.32;;
83284;SDS011;73191;50.074;8.488;2024-01-15T05:33:13;17.90;;;7.25;;
83284;SDS011;73191;50.074;8.488;2024-01-15T05:35:41;19.90;;;7.20;;
83284;SDS011;73191;50.074;8.488;2024-01-15T05:38:09;18.63;;;7.55;;
83284;SDS011;73191;50.074;8.488;2024-01-15T05:40:36;18.75;;;6.32;;
83284;SDS011;73191;50.074;8.488;2024-01-15T05:43:04;20.20;;;7.00;;
83284;SDS011;73191;50.074;8.488;2024-01-15T05:45:33;18.05;;;6.75;;
83284;SDS011;73191;50.074;8.488;2024-01-15T05:48:01;19.63;;;6.65;;
83284;SDS011;73191;50.074;8.488;2024-01-15T05:50:31;21.15;;;8.70;;
83284;SDS011;73191;50.074;8.488;2024-01-15T05:52:59;19.45;;;6.53;;
83284;SDS011;73191;50.074;8.488;2024-01-15T05:55:27;19.40;;;7.22;;
83284;SDS011;73191;50.074;8.488;2024-01-15T05:57:54;19.00;;;7.07;;
83284;SDS011;73191;50.074;8.488;2024-01-15T06:00:22;16.98;;;7.20;;
83284;SDS011;73191;50.074;8.488;2024-01-15T06:02:50;20.27;;;6.68;;
83284;SDS011;73191;50.074;8.488;2024-01-15T06:05:17;21.52;;;7.55;;
83284;SDS011;73191;50.074;8.488;2024-01-15T06:07:46;16.65;;;7.57;;
83284;SDS011;73191;50.074;8.488;2024-01-15T06:10:14;18.95;;;6.90;;
83284;SDS011;73191;50.074;8.488;2024-01-15T06:12:43;19.67;;;7.93;;
83284;SDS011;73191;50.074;8.488;2024-01-15T06:15:11;22.42;;;7.60;;
83284;SDS011;73191;50.074;8.488;2024-01-15T06:17:39;17.83;;;6.63;;
83284;SDS011;73191;50.074;8.488;2024-01-15T06:20:07;19.52;;;7.78;;
83284;SDS011;73191;50.074;8.488;2024-01-15T06:22:37;18.25;;;7.18;;
83284;SDS011;73191;50.074;8.488;2024-01-15T06:25:07;21.30;;;7.43;;
83284;SDS011;73191;50.074;8.488;2024-01-15T06:27:35;18.95;;;6.85;;
83284;SDS011;73191;50.074;8.488;2024-01-15T06:30:04;19.50;;;7.55;;
83284;SDS011;73191;50.074;8.488;2024-01-15T06:32:33;24.90;;;7.97;;
83284;SDS011;73191;50.074;8.488;2024-01-15T06:35:00;21.70;;;7.30;;
83284;SDS011;73191;50.074;8.488;2024-01-15T06:37:28;18.92;;;7.68;;
83284;SDS011;73191;50.074;8.488;2024-01-15T06:39:56;20.45;;;7.47;;
83284;SDS011;73191;50.074;8.488;2024-01-15T06:42:25;19.13;;;7.45;;
83284;SDS011;73191;50.074;8.488;2024-01-15T06:44:53;26.20;;;7.95;;
83284;SDS011;73191;50.074;8.488;2024-01-15T06:47:20;23.08;;;9.07;;
83284;SDS011;73191;50.074;8.488;2024-01-15T06:49:48;20.95;;;6.88;;
83284;SDS011;73191;50.074;8.488;2024-01-15T06:52:17;25.52;;;8.50;;
83284;SDS011;73191;50.074;8.488;2024-01-15T06:54:44;18.83;;;7.85;;
83284;SDS011;73191;50.074;8.488;2024-01-15T06:57:12;17.10;;;6.75;;
83284;SDS011;73191;50.074;8.488;2024-01-15T06:59:41;20.50;;;7.75;;
83284;SDS011;73191;50.074;8.488;2024-01-15T07:02:09;19.73;;;7.30;;
83284;SDS011;73191;50.074;8.488;2024-01-15T07:04:36;21.02;;;6.57;;
83284;SDS011;73191;50.074;8.488;2024-01-15T07:07:08;20.02;;;8.15;;
83284;SDS011;73191;50.074;8.488;2024-01-15T07:09:36;22.00;;;7.10;;
83284;SDS011;73191;50.074;8.488;2024-01-15T07:12:04;20.40;;;7.10;;
83284;SDS011;73191;50.074;8.488;2024-01-15T07:14:32;20.25;;;6.68;;
83284;SDS011;73191;50.074;8.488;2024-01-15T07:17:01;16.40;;;6.03;;
83284;SDS011;73191;50.074;8.488;2024-01-15T07:19:28;17.90;;;7.43;;
83284;SDS011;73191;50.074;8.488;2024-01-15T07:21:56;25.40;;;8.25;;
83284;SDS011;73191;50.074;8.488;2024-01-15T07:24:24;19.63;;;7.38;;
83284;SDS011;73191;50.074;8.488;2024-01-15T07:26:52;20.27;;;7.53;;
83284;SDS011;73191;50.074;8.488;2024-01-15T07:29:19;23.50;;;8.45;;
83284;SDS011;73191;50.074;8.488;2024-01-15T07:31:48;21.70;;;6.90;;
83284;SDS011;73191;50.074;8.488;2024-01-15T07:34:18;21.45;;;7.30;;
83284;SDS011;73191;50.074;8.488;2024-01-15T07:36:46;19.83;;;7.45;;
83284;SDS011;73191;50.074;8.488;2024-01-15T07:39:13;21.40;;;8.63;;
83284;SDS011;73191;50.074;8.488;2024-01-15T07:41:41;17.58;;;7.45;;
83284;SDS011;73191;50.074;8.488;2024-01-15T07:44:09;21.67;;;7.53;;
83284;SDS011;73191;50.074;8.488;2024-01-15T07:46:36;21.65;;;7.22;;
83284;SDS011;73191;50.074;8.488;2024-01-15T07:49:05;15.98;;;6.85;;
83284;SDS011;73191;50.074;8.488;2024-01-15T07:51:34;20.95;;;7.68;;
83284;SDS011;73191;50.074;8.488;2024-01-15T07:54:02;15.68;;;6.45;;
83284;SDS011;73191;50.074;8.488;2024-01-15T07:56:30;18.77;;;7.50;;
83284;SDS011;73191;50.074;8.488;2024-01-15T07:58:57;20.13;;;8.07;;
83284;SDS011;73191;50.074;8.488;2024-01-15T08:01:25;19.15;;;7.20;;
83284;SDS011;73191;50.074;8.488;2024-01-15T08:03:53;24.05;;;8.60;;
83284;SDS011;73191;50.074;8.488;2024-01-15T08:06:21;19.95;;;8.10;;
83284;SDS011;73191;50.074;8.488;2024-01-15T08:09:04;21.13;;;6.75;;
83284;SDS011;73191;50.074;8.488;2024-01-15T08:11:31;21.65;;;7.55;;
83284;SDS011;73191;50.074;8.488;2024-01-15T08:13:59;21.52;;;8.25;;
83284;SDS011;73191;50.074;8.488;2024-01-15T08:16:27;20.88;;;8.70;;
83284;SDS011;73191;50.074;8.488;2024-01-15T08:18:54;22.15;;;7.60;;
83284;SDS011;73191;50.074;8.488;2024-01-15T08:21:23;16.60;;;6.85;;
83284;SDS011;73191;50.074;8.488;2024-01-15T08:23:50;22.95;;;7.93;;
83284;SDS011;73191;50.074;8.488;2024-01-15T08:26:19;20.02;;;8.10;;
83284;SDS011;73191;50.074;8.488;2024-01-15T08:28:47;26.92;;;8.10;;
83284;SDS011;73191;50.074;8.488;2024-01-15T08:31:15;22.48;;;8.05;;
83284;SDS011;73191;50.074;8.488;2024-01-15T08:33:43;17.13;;;6.45;;
83284;SDS011;73191;50.074;8.488;2024-01-15T08:36:11;18.00;;;7.18;;
83284;SDS011;73191;50.074;8.488;2024-01-15T08:38:39;19.70;;;7.28;;
83284;SDS011;73191;50.074;8.488;2024-01-15T08:41:06;20.48;;;8.10;;
83284;SDS011;73191;50.074;8.488;2024-01-15T08:43:36;24.85;;;7.50;;
83284;SDS011;73191;50.074;8.488;2024-01-15T08:46:03;18.75;;;7.55;;
83284;SDS011;73191;50.074;8.488;2024-01-15T08:48:31;21.35;;;7.03;;
83284;SDS011;73191;50.074;8.488;2024-01-15T08:50:59;20.27;;;7.75;;
83284;SDS011;73191;50.074;8.488;2024-01-15T08:53:26;19.23;;;8.20;;
83284;SDS011;73191;50.074;8.488;2024-01-15T08:55:54;20.38;;;7.88;;
83284;SDS011;73191;50.074;8.488;2024-01-15T08:58:23;24.02;;;8.40;;
83284;SDS011;73191;50.074;8.488;2024-01-15T09:00:52;18.13;;;7.30;;
83284;SDS011;73191;50.074;8.488;2024-01-15T09:03:20;18.55;;;7.43;;
83284;SDS011;73191;50.074;8.488;2024-01-15T09:05:47;17.38;;;7.50;;
83284;SDS011;73191;50.074;8.488;2024-01-15T09:08:16;21.13;;;8.05;;
83284;SDS011;73191;50.074;8.488;2024-01-15T09:10:44;19.63;;;8.07;;
83284;SDS011;73191;50.074;8.488;2024-01-15T09:13:12;16.58;;;7.43;;
83284;SDS011;73191;50.074;8.488;2024-01-15T09:15:40;20.38;;;8.00;;
83284;SDS011;73191;50.074;8.488;2024-01-15T09:18:28;22.38;;;8.45;;
83284;SDS011;73191;50.074;8.488;2024-01-15T09:20:56;24.83;;;7.95;;
83284;SDS011;73191;50.074;8.488;2024-01-15T09:23:23;18.90;;;7.32;;
83284;SDS011;73191;50.074;8.488;2024-01-15T09:25:54;18.45;;;7.75;;
83284;SDS011;73191;50.074;8.488;2024-01-15T09:28:21;24.65;;;8.30;;
83284;SDS011;73191;50.074;8.488;2024-01-15T09:30:49;17.38;;;7.78;;
83284;SDS011;73191;50.074;8.488;2024-01-15T09:33:17;17.40;;;7.15;;
83284;SDS011;73191;50.074;8.488;2024-01-15T09:35:46;18.58;;;8.07;;
83284;SDS011;73191;50.074;8.488;2024-01-15T09:38:13;16.80;;;7.30;;
83284;SDS011;73191;50.074;8.488;2024-01-15T09:40:42;21.50;;;7.70;;
83284;SDS011;73191;50.074;8.488;2024-01-15T09:43:10;18.65;;;8.02;;
83284;SDS011;73191;50.074;8.488;2024-01-15T09:45:38;20.15;;;8.32;;
83284;SDS011;73191;50.074;8.488;2024-01-15T09:48:07;16.52;;;6.90;;
83284;SDS011;73191;50.074;8.488;2024-01-15T09:50:34;15.57;;;6.80;;
83284;SDS011;73191;50.074;8.488;2024-01-15T09:53:04;17.23;;;7.13;;
83284;SDS011;73191;50.074;8.488;2024-01-15T09:55:32;17.65;;;6.85;;
83284;SDS011;73191;50.074;8.488;2024-01-15T09:58:00;18.75;;;7.57;;
83284;SDS011;73191;50.074;8.488;2024-01-15T10:00:29;18.20;;;7.85;;
83284;SDS011;73191;50.074;8.488;2024-01-15T10:02:57;16.42;;;6.88;;
83284;SDS011;73191;50.074;8.488;2024-01-15T10:05:26;17.58;;;6.85;;
83284;SDS011;73191;50.074;8.488;2024-01-15T10:07:54;18.95;;;6.85;;
83284;SDS011;73191;50.074;8.488;2024-01-15T10:10:25;12.55;;;6.18;;
83284;SDS011;73191;50.074;8.488;2024-01-15T10:12:53;18.67;;;7.85;;
83284;SDS011;73191;50.074;8.488;2024-01-15T10:15:22;17.73;;;7.05;;
83284;SDS011;73191;50.074;8.488;2024-01-15T10:17:52;17.00;;;7.45;;
83284;SDS011;73191;50.074;8.488;2024-01-15T10:20:20;18.10;;;7.53;;
83284;SDS011;73191;50.074;8.488;2024-01-15T10:22:49;16.98;;;7.28;;
83284;SDS011;73191;50.074;8.488;2024-01-15T10:25:17;18.33;;;7.47;;
83284;SDS011;73191;50.074;8.488;2024-01-15T10:27:58;15.43;;;7.28;;
83284;SDS011;73191;50.074;8.488;2024-01-15T10:30:27;16.48;;;6.95;;
83284;SDS011;73191;50.074;8.488;2024-01-15T10:32:58;16.00;;;7.50;;
83284;SDS011;73191;50.074;8.488;2024-01-15T10:35:29;16.10;;;6.75;;
83284;SDS011;73191;50.074;8.488;2024-01-15T10:37:57;16.05;;;7.15;;
83284;SDS011;73191;50.074;8.488;2024-01-15T10:40:26;14.98;;;6.53;;
83284;SDS011;73191;50.074;8.488;2024-01-15T10:42:54;20.05;;;7.18;;
83284;SDS011;73191;50.074;8.488;2024-01-15T10:45:23;14.45;;;6.05;;
83284;SDS011;73191;50.074;8.488;2024-01-15T10:47:52;15.45;;;6.40;;
83284;SDS011;73191;50.074;8.488;2024-01-15T10:50:20;14.43;;;7.35;;
83284;SDS011;73191;50.074;8.488;2024-01-15T10:52:48;17.02;;;7.15;;
83284;SDS011;73191;50.074;8.488;2024-01-15T10:55:16;15.30;;;6.70;;
83284;SDS011;73191;50.074;8.488;2024-01-15T10:57:45;14.57;;;6.55;;
83284;SDS011;73191;50.074;8.488;2024-01-15T11:00:15;13.98;;;6.63;;
83284;SDS011;73191;50.074;8.488;2024-01-15T11:02:45;14.23;;;6.53;;
83284;SDS011;73191;50.074;8.488;2024-01-15T11:05:13;12.93;;;6.05;;
83284;SDS011;73191;50.074;8.488;2024-01-15T11:07:43;16.77;;;6.65;;
83284;SDS011;73191;50.074;8.488;2024-01-15T11:13:08;13.40;;;5.85;;
83284;SDS011;73191;50.074;8.488;2024-01-15T11:16:00;14.20;;;6.25;;
83284;SDS011;73191;50.074;8.488;2024-01-15T11:18:30;13.65;;;6.88;;
83284;SDS011;73191;50.074;8.488;2024-01-15T11:21:19;15.63;;;6.03;;
83284;SDS011;73191;50.074;8.488;2024-01-15T11:23:50;15.43;;;8.00;;
83284;SDS011;73191;50.074;8.488;2024-01-15T11:26:26;17.15;;;7.22;;
83284;SDS011;73191;50.074;8.488;2024-01-15T11:28:55;19.08;;;7.40;;
83284;SDS011;73191;50.074;8.488;2024-01-15T11:31:28;13.30;;;6.53;;
83284;SDS011;73191;50.074;8.488;2024-01-15T11:33:57;16.05;;;6.38;;
83284;SDS011;73191;50.074;8.488;2024-01-15T11:39:41;13.00;;;6.03;;
83284;SDS011;73191;50.074;8.488;2024-01-15T11:42:10;17.90;;;6.38;;
83284;SDS011;73191;50.074;8.488;2024-01-15T11:44:38;14.52;;;7.18;;
83284;SDS011;73191;50.074;8.488;2024-01-15T11:47:06;15.48;;;7.20;;
83284;SDS011;73191;50.074;8.488;2024-01-15T11:52:16;18.25;;;6.85;;
83284;SDS011;73191;50.074;8.488;2024-01-15T11:55:00;17.58;;;7.55;;
83284;SDS011;73191;50.074;8.488;2024-01-15T11:57:32;11.65;;;5.93;;
83284;SDS011;73191;50.074;8.488;2024-01-15T12:00:06;14.90;;;6.05;;
83284;SDS011;73191;50.074;8.488;2024-01-15T12:02:38;13.90;;;5.97;;
83284;SDS011;73191;50.074;8.488;2024-01-15T12:05:07;13.27;;;6.35;;
83284;SDS011;73191;50.074;8.488;2024-01-15T12:07:35;12.85;;;5.88;;
83284;SDS011;73191;50.074;8.488;2024-01-15T12:10:03;14.73;;;6.13;;
83284;SDS011;73191;50.074;8.488;2024-01-15T12:12:42;12.00;;;5.70;;
83284;SDS011;73191;50.074;8.488;2024-01-15T12:15:14;15.35;;;7.10;;
83284;SDS011;73191;50.074;8.488;2024-01-15T12:17:42;13.82;;;6.30;;
83284;SDS011;73191;50.074;8.488;2024-01-15T12:20:12;14.45;;;6.30;;
83284;SDS011;73191;50.074;8.488;2024-01-15T12:22:39;12.48;;;6.18;;
83284;SDS011;73191;50.074;8.488;2024-01-15T12:25:25;14.05;;;5.65;;
83284;SDS011;73191;50.074;8.488;2024-01-15T12:27:54;14.00;;;5.88;;
83284;SDS011;73191;50.074;8.488;2024-01-15T12:30:22;14.23;;;6.10;;
83284;SDS011;73191;50.074;8.488;2024-01-15T12:32:50;15.52;;;5.20;;
83284;SDS011;73191;50.074;8.488;2024-01-15T12:35:19;15.88;;;6.13;;
83284;SDS011;73191;50.074;8.488;2024-01-15T12:37:47;10.95;;;5.10;;
83284;SDS011;73191;50.074;8.488;2024-01-15T12:40:18;12.32;;;5.53;;
83284;SDS011;73191;50.074;8.488;2024-01-15T12:42:46;11.57;;;5.63;;
83284;SDS011;73191;50.074;8.488;2024-01-15T12:45:14;12.38;;;5.22;;
83284;SDS011;73191;50.074;8.488;2024-01-15T12:47:42;10.75;;;4.90;;
83284;SDS011;73191;50.074;8.488;2024-01-15T12:50:10;13.18;;;5.18;;
83284;SDS011;73191;50.074;8.488;2024-01-15T12:52:47;11.90;;;5.30;;
83284;SDS011;73191;50.074;8.488;2024-01-15T12:55:15;14.07;;;5.65;;
83284;SDS011;73191;50.074;8.488;2024-01-15T12:57:43;11.50;;;5.25;;
83284;SDS011;73191;50.074;8.488;2024-01-15T13:00:12;11.00;;;5.22;;
83284;SDS011;73191;50.074;8.488;2024-01-15T13:02:41;12.60;;;5.25;;
83284;SDS011;73191;50.074;8.488;2024-01-15T13:05:10;12.13;;;5.72;;
83284;SDS011;73191;50.074;8.488;2024-01-15T13:07:41;12.57;;;5.35;;
83284;SDS011;73191;50.074;8.488;2024-01-15T13:10:11;11.00;;;5.53;;
83284;SDS011;73191;50.074;8.488;2024-01-15T13:12:39;11.85;;;5.45;;
83284;SDS011;73191;50.074;8.488;2024-01-15T13:15:08;11.52;;;5.20;;
83284;SDS011;73191;50.074;8.488;2024-01-15T13:17:40;10.15;;;4.88;;
83284;SDS011;73191;50.074;8.488;2024-01-15T13:20:10;13.38;;;6.38;;
83284;SDS011;73191;50.074;8.488;2024-01-15T13:22:38;12.15;;;5.28;;
83284;SDS011;73191;50.074;8.488;2024-01-15T13:25:07;11.90;;;5.78;;
83284;SDS011;73191;50.074;8.488;2024-01-15T13:27:37;11.07;;;5.22;;
83284;SDS011;73191;50.074;8.488;2024-01-15T13:30:06;11.52;;;4.85;;
83284;SDS011;73191;50.074;8.488;2024-01-15T13:32:35;10.60;;;5.60;;
83284;SDS011;73191;50.074;8.488;2024-01-15T13:35:03;10.93;;;5.05;;
83284;SDS011;73191;50.074;8.488;2024-01-15T13:37:35;12.27;;;4.43;;
83284;SDS011;73191;50.074;8.488;2024-01-15T13:40:04;10.55;;;4.93;;
83284;SDS011;73191;50.074;8.488;2024-01-15T13:42:34;11.35;;;5.18;;
83284;SDS011;73191;50.074;8.488;2024-01-15T13:45:06;10.15;;;4.80;;
83284;SDS011;73191;50.074;8.488;2024-01-15T13:47:34;11.32;;;4.70;;
83284;SDS011;73191;50.074;8.488;2024-01-15T13:50:04;8.40;;;4.10;;
83284;SDS011;73191;50.074;8.488;2024-01-15T13:52:32;11.15;;;4.88;;
83284;SDS011;73191;50.074;8.488;2024-01-15T13:55:00;10.02;;;4.65;;
83284;SDS011;73191;50.074;8.488;2024-01-15T13:57:28;12.07;;;4.80;;
83284;SDS011;73191;50.074;8.488;2024-01-15T13:59:55;11.35;;;5.05;;
83284;SDS011;73191;50.074;8.488;2024-01-15T14:02:24;10.70;;;4.95;;
83284;SDS011;73191;50.074;8.488;2024-01-15T14:04:53;9.95;;;4.72;;
83284;SDS011;73191;50.074;8.488;2024-01-15T14:07:21;11.05;;;4.65;;
83284;SDS011;73191;50.074;8.488;2024-01-15T14:09:48;10.93;;;4.45;;
83284;SDS011;73191;50.074;8.488;2024-01-15T14:12:16;9.10;;;4.18;;
83284;SDS011;73191;50.074;8.488;2024-01-15T14:14:44;8.90;;;4.13;;
83284;SDS011;73191;50.074;8.488;2024-01-15T14:17:12;8.63;;;3.88;;
83284;SDS011;73191;50.074;8.488;2024-01-15T14:19:41;10.20;;;3.85;;
83284;SDS011;73191;50.074;8.488;2024-01-15T14:22:09;9.05;;;4.15;;
83284;SDS011;73191;50.074;8.488;2024-01-15T14:24:37;7.10;;;3.78;;
83284;SDS011;73191;50.074;8.488;2024-01-15T14:27:05;11.85;;;4.78;;
83284;SDS011;73191;50.074;8.488;2024-01-15T14:29:33;8.00;;;3.83;;
83284;SDS011;73191;50.074;8.488;2024-01-15T14:32:02;8.63;;;3.83;;
83284;SDS011;73191;50.074;8.488;2024-01-15T14:34:30;9.65;;;4.03;;
83284;SDS011;73191;50.074;8.488;2024-01-15T14:36:59;8.18;;;3.60;;
83284;SDS011;73191;50.074;8.488;2024-01-15T14:39:27;10.73;;;4.05;;
83284;SDS011;73191;50.074;8.488;2024-01-15T14:41:54;8.52;;;3.80;;
83284;SDS011;73191;50.074;8.488;2024-01-15T14:44:23;9.82;;;5.07;;
83284;SDS011;73191;50.074;8.488;2024-01-15T14:46:50;10.27;;;4.45;;
83284;SDS011;73191;50.074;8.488;2024-01-15T14:49:18;10.15;;;4.72;;
83284;SDS011;73191;50.074;8.488;2024-01-15T14:51:46;10.02;;;4.07;;
83284;SDS011;73191;50.074;8.488;2024-01-15T14:54:17;10.13;;;4.32;;